sensor_id;sensor_type;location;lat;lon;timestamp;pressure;altitude;pressure_sealevel;temperature;humidity
55538;BME280;41383;51.418;7.286;2023-08-01T00:00:57;98202.06;;;17.94;97.38
55538;BME280;41383;51.418;7.286;2023-08-01T00:03:23;98181.25;;;18.13;97.36
55538;BME280;41383;51.418;7.286;2023-08-01T00:05:48;98190.47;;;18.04;97.03
55538;BME280;41383;51.418;7.286;2023-08-01T00:08:14;98189.94;;;17.99;97.97
55538;BME280;41383;51.418;7.286;2023-08-01T00:10:40;98187.63;;;17.84;98.65
55538;BME280;41383;51.418;7.286;2023-08-01T00:13:06;98184.69;;;17.77;99.77
55538;BME280;41383;51.418;7.286;2023-08-01T00:15:32;98189.78;;;17.91;99.23
55538;BME280;41383;51.418;7.286;2023-08-01T00:17:57;98169.16;;;18.01;98.72
55538;BME280;41383;51.418;7.286;2023-08-01T00:20:22;98160.88;;;18.01;98.20
55538;BME280;41383;51.418;7.286;2023-08-01T00:22:48;98156.25;;;18.05;97.69
55538;BME280;41383;51.418;7.286;2023-08-01T00:25:13;98159.91;;;18.09;97.54
55538;BME280;41383;51.418;7.286;2023-08-01T00:27:39;98152.97;;;18.16;97.24
55538;BME280;41383;51.418;7.286;2023-08-01T00:30:04;98150.22;;;18.16;96.31
55538;BME280;41383;51.418;7.286;2023-08-01T00:32:30;98147.03;;;18.30;96.65
55538;BME280;41383;51.418;7.286;2023-08-01T00:34:55;98136.09;;;18.34;96.06
55538;BME280;41383;51.418;7.286;2023-08-01T00:37:20;98138.69;;;18.26;96.10
55538;BME280;41383;51.418;7.286;2023-08-01T00:39:46;98137.34;;;18.20;96.53
55538;BME280;41383;51.418;7.286;2023-08-01T00:42:11;98139.66;;;18.18;96.89
55538;BME280;41383;51.418;7.286;2023-08-01T00:44:36;98141.44;;;18.26;96.19
55538;BME280;41383;51.418;7.286;2023-08-01T00:47:01;98149.53;;;18.35;96.59
55538;BME280;41383;51.418;7.286;2023-08-01T00:49:27;98138.03;;;18.49;95.61
55538;BME280;41383;51.418;7.286;2023-08-01T00:51:52;98127.97;;;18.41;95.55
55538;BME280;41383;51.418;7.286;2023-08-01T00:54:18;98135.72;;;18.19;95.57
55538;BME280;41383;51.418;7.286;2023-08-01T00:56:43;98151.59;;;18.22;95.54
55538;BME280;41383;51.418;7.286;2023-08-01T00:59:10;98156.91;;;18.31;94.83
55538;BME280;41383;51.418;7.286;2023-08-01T01:01:35;98144.97;;;18.27;94.70
55538;BME280;41383;51.418;7.286;2023-08-01T01:04:01;98151.34;;;18.15;94.82
55538;BME280;41383;51.418;7.286;2023-08-01T01:06:38;98142.50;;;18.22;94.74
55538;BME280;41383;51.418;7.286;2023-08-01T01:09:16;98140.03;;;18.33;93.73
55538;BME280;41383;51.418;7.286;2023-08-01T01:11:42;98129.31;;;18.31;94.10
55538;BME280;41383;51.418;7.286;2023-08-01T01:14:07;98137.56;;;18.47;92.90
55538;BME280;41383;51.418;7.286;2023-08-01T01:16:33;98118.91;;;18.40;92.57
55538;BME280;41383;51.418;7.286;2023-08-01T01:18:58;98128.25;;;18.52;92.08
55538;BME280;41383;51.418;7.286;2023-08-01T01:21:23;98115.75;;;18.58;91.51
55538;BME280;41383;51.418;7.286;2023-08-01T01:23:49;98108.84;;;18.48;91.75
55538;BME280;41383;51.418;7.286;2023-08-01T01:26:16;98115.50;;;18.47;91.80
55538;BME280;41383;51.418;7.286;2023-08-01T01:28:45;98123.97;;;18.54;91.56
55538;BME280;41383;51.418;7.286;2023-08-01T01:31:12;98115.94;;;18.49;91.75
55538;BME280;41383;51.418;7.286;2023-08-01T01:33:38;98094.63;;;18.46;92.06
55538;BME280;41383;51.418;7.286;2023-08-01T01:36:03;98096.84;;;18.40;92.26
55538;BME280;41383;51.418;7.286;2023-08-01T01:38:29;98102.00;;;18.42;92.22
55538;BME280;41383;51.418;7.286;2023-08-01T01:40:54;98105.38;;;18.35;91.64
55538;BME280;41383;51.418;7.286;2023-08-01T01:43:19;98091.00;;;18.26;92.49
55538;BME280;41383;51.418;7.286;2023-08-01T01:45:45;98083.69;;;18.34;92.67
55538;BME280;41383;51.418;7.286;2023-08-01T01:48:10;98085.09;;;18.43;92.24
55538;BME280;41383;51.418;7.286;2023-08-01T01:50:35;98073.13;;;18.55;91.64
55538;BME280;41383;51.418;7.286;2023-08-01T01:53:00;98066.53;;;18.60;91.00
55538;BME280;41383;51.418;7.286;2023-08-01T01:55:26;98076.06;;;18.63;90.79
55538;BME280;41383;51.418;7.286;2023-08-01T01:57:51;98075.38;;;18.50;91.31
55538;BME280;41383;51.418;7.286;2023-08-01T02:00:16;98085.03;;;18.60;91.49
55538;BME280;41383;51.418;7.286;2023-08-01T02:02:41;98084.09;;;18.52;91.20
55538;BME280;41383;51.418;7.286;2023-08-01T02:05:07;98084.81;;;18.49;91.53
55538;BME280;41383;51.418;7.286;2023-08-01T02:07:32;98071.03;;;18.49;91.74
55538;BME280;41383;51.418;7.286;2023-08-01T02:09:59;98060.06;;;18.52;91.69
55538;BME280;41383;51.418;7.286;2023-08-01T02:12:24;98065.72;;;18.60;91.35
55538;BME280;41383;51.418;7.286;2023-08-01T02:14:50;98065.47;;;18.65;90.93
55538;BME280;41383;51.418;7.286;2023-08-01T02:17:15;98075.41;;;18.70;90.56
55538;BME280;41383;51.418;7.286;2023-08-01T02:19:41;98070.09;;;18.61;90.78
55538;BME280;41383;51.418;7.286;2023-08-01T02:22:06;98074.44;;;18.62;91.02
55538;BME280;41383;51.418;7.286;2023-08-01T02:24:31;98077.31;;;18.49;91.07
55538;BME280;41383;51.418;7.286;2023-08-01T02:26:57;98069.25;;;18.40;92.09
55538;BME280;41383;51.418;7.286;2023-08-01T02:29:22;98077.88;;;18.39;91.42
55538;BME280;41383;51.418;7.286;2023-08-01T02:31:47;98073.28;;;18.27;91.06
55538;BME280;41383;51.418;7.286;2023-08-01T02:34:13;98069.81;;;17.97;91.53
55538;BME280;41383;51.418;7.286;2023-08-01T02:36:38;98073.91;;;17.71;91.51
55538;BME280;41383;51.418;7.286;2023-08-01T02:39:05;98072.91;;;17.64;92.25
55538;BME280;41383;51.418;7.286;2023-08-01T02:41:31;98080.72;;;17.61;91.99
55538;BME280;41383;51.418;7.286;2023-08-01T02:43:56;98078.22;;;17.56;92.33
55538;BME280;41383;51.418;7.286;2023-08-01T02:46:21;98076.53;;;17.52;92.26
55538;BME280;41383;51.418;7.286;2023-08-01T02:48:47;98086.06;;;17.54;91.93
55538;BME280;41383;51.418;7.286;2023-08-01T02:51:12;98095.53;;;17.41;92.28
55538;BME280;41383;51.418;7.286;2023-08-01T02:53:37;98088.78;;;17.38;91.98
55538;BME280;41383;51.418;7.286;2023-08-01T02:56:05;98090.28;;;17.35;92.18
55538;BME280;41383;51.418;7.286;2023-08-01T02:58:32;98097.41;;;17.36;92.30
55538;BME280;41383;51.418;7.286;2023-08-01T03:00:57;98086.19;;;17.45;91.92
55538;BME280;41383;51.418;7.286;2023-08-01T03:03:23;98086.09;;;17.42;91.39
55538;BME280;41383;51.418;7.286;2023-08-01T03:05:48;98085.59;;;17.52;92.26
55538;BME280;41383;51.418;7.286;2023-08-01T03:08:13;98090.41;;;17.55;92.14
55538;BME280;41383;51.418;7.286;2023-08-01T03:10:39;98090.06;;;17.57;91.64
55538;BME280;41383;51.418;7.286;2023-08-01T03:13:04;98092.16;;;17.47;91.25
55538;BME280;41383;51.418;7.286;2023-08-01T03:15:29;98080.63;;;17.58;91.54
55538;BME280;41383;51.418;7.286;2023-08-01T03:17:54;98086.94;;;17.58;91.61
55538;BME280;41383;51.418;7.286;2023-08-01T03:20:20;98089.44;;;17.64;91.18
55538;BME280;41383;51.418;7.286;2023-08-01T03:22:45;98086.13;;;17.58;90.47
55538;BME280;41383;51.418;7.286;2023-08-01T03:25:10;98092.19;;;17.64;91.64
55538;BME280;41383;51.418;7.286;2023-08-01T03:27:36;98092.63;;;17.66;90.91
55538;BME280;41383;51.418;7.286;2023-08-01T03:30:02;98095.50;;;17.69;91.11
55538;BME280;41383;51.418;7.286;2023-08-01T03:32:29;98094.94;;;17.64;91.56
55538;BME280;41383;51.418;7.286;2023-08-01T03:34:54;98102.66;;;17.58;91.01
55538;BME280;41383;51.418;7.286;2023-08-01T03:37:20;98101.88;;;17.57;91.57
55538;BME280;41383;51.418;7.286;2023-08-01T03:39:45;98109.06;;;17.62;91.41
55538;BME280;41383;51.418;7.286;2023-08-01T03:42:10;98108.16;;;17.42;91.54
55538;BME280;41383;51.418;7.286;2023-08-01T03:44:36;98107.50;;;17.32;92.70
55538;BME280;41383;51.418;7.286;2023-08-01T03:47:01;98103.72;;;17.37;92.55
55538;BME280;41383;51.418;7.286;2023-08-01T03:49:26;98111.19;;;17.53;92.76
55538;BME280;41383;51.418;7.286;2023-08-01T03:51:52;98109.50;;;17.48;92.14
55538;BME280;41383;51.418;7.286;2023-08-01T03:54:17;98118.81;;;17.43;92.73
55538;BME280;41383;51.418;7.286;2023-08-01T03:56:42;98129.03;;;17.43;92.78
55538;BME280;41383;51.418;7.286;2023-08-01T03:59:08;98122.81;;;17.46;92.43
55538;BME280;41383;51.418;7.286;2023-08-01T04:01:34;98128.59;;;17.41;92.32
55538;BME280;41383;51.418;7.286;2023-08-01T04:03:59;98127.44;;;17.42;92.61
55538;BME280;41383;51.418;7.286;2023-08-01T04:06:24;98132.78;;;17.22;92.25
55538;BME280;41383;51.418;7.286;2023-08-01T04:08:49;98135.63;;;17.25;92.21
55538;BME280;41383;51.418;7.286;2023-08-01T04:11:15;98144.94;;;17.21;91.70
55538;BME280;41383;51.418;7.286;2023-08-01T04:13:40;98137.53;;;16.96;92.03
55538;BME280;41383;51.418;7.286;2023-08-01T04:16:05;98154.16;;;17.00;92.85
55538;BME280;41383;51.418;7.286;2023-08-01T04:18:31;98156.00;;;16.96;92.73
55538;BME280;41383;51.418;7.286;2023-08-01T04:20:56;98149.13;;;17.02;92.75
55538;BME280;41383;51.418;7.286;2023-08-01T04:23:21;98141.31;;;17.04;92.54
55538;BME280;41383;51.418;7.286;2023-08-01T04:25:46;98148.78;;;16.91;92.30
55538;BME280;41383;51.418;7.286;2023-08-01T04:28:12;98151.97;;;17.06;91.97
55538;BME280;41383;51.418;7.286;2023-08-01T04:30:37;98149.31;;;17.09;91.77
55538;BME280;41383;51.418;7.286;2023-08-01T04:33:03;98147.25;;;17.19;90.94
55538;BME280;41383;51.418;7.286;2023-08-01T04:35:29;98157.38;;;17.14;91.30
55538;BME280;41383;51.418;7.286;2023-08-01T04:37:54;98151.81;;;17.27;90.62
55538;BME280;41383;51.418;7.286;2023-08-01T04:40:19;98146.34;;;17.14;90.80
55538;BME280;41383;51.418;7.286;2023-08-01T04:42:44;98145.00;;;16.96;91.23
55538;BME280;41383;51.418;7.286;2023-08-01T04:45:10;98149.34;;;16.84;91.06
55538;BME280;41383;51.418;7.286;2023-08-01T04:47:35;98153.47;;;16.90;91.72
55538;BME280;41383;51.418;7.286;2023-08-01T04:50:00;98150.34;;;17.04;90.98
55538;BME280;41383;51.418;7.286;2023-08-01T04:52:26;98151.25;;;17.21;90.72
55538;BME280;41383;51.418;7.286;2023-08-01T04:54:51;98141.75;;;17.19;90.24
55538;BME280;41383;51.418;7.286;2023-08-01T04:57:16;98148.66;;;17.12;90.51
55538;BME280;41383;51.418;7.286;2023-08-01T04:59:41;98159.06;;;17.07;90.01
55538;BME280;41383;51.418;7.286;2023-08-01T05:02:07;98159.75;;;17.03;90.10
55538;BME280;41383;51.418;7.286;2023-08-01T05:04:32;98163.44;;;17.08;90.41
55538;BME280;41383;51.418;7.286;2023-08-01T05:06:57;98164.00;;;17.13;89.73
55538;BME280;41383;51.418;7.286;2023-08-01T05:09:22;98156.84;;;17.25;89.13
55538;BME280;41383;51.418;7.286;2023-08-01T05:11:48;98153.19;;;17.21;89.70
55538;BME280;41383;51.418;7.286;2023-08-01T05:14:13;98160.88;;;17.27;89.99
55538;BME280;41383;51.418;7.286;2023-08-01T05:16:38;98168.19;;;17.36;89.03
55538;BME280;41383;51.418;7.286;2023-08-01T05:19:03;98171.31;;;17.34;89.08
55538;BME280;41383;51.418;7.286;2023-08-01T05:21:29;98180.50;;;17.26;89.33
55538;BME280;41383;51.418;7.286;2023-08-01T05:23:54;98176.97;;;17.13;89.62
55538;BME280;41383;51.418;7.286;2023-08-01T05:26:19;98176.28;;;17.16;89.72
55538;BME280;41383;51.418;7.286;2023-08-01T05:28:45;98182.38;;;16.97;89.46
55538;BME280;41383;51.418;7.286;2023-08-01T05:31:10;98174.91;;;17.10;90.18
55538;BME280;41383;51.418;7.286;2023-08-01T05:33:35;98174.66;;;17.15;90.02
55538;BME280;41383;51.418;7.286;2023-08-01T05:36:00;98189.59;;;17.14;89.70
55538;BME280;41383;51.418;7.286;2023-08-01T05:38:26;98185.91;;;17.10;89.94
55538;BME280;41383;51.418;7.286;2023-08-01T05:40:51;98187.53;;;16.98;90.32
55538;BME280;41383;51.418;7.286;2023-08-01T05:43:17;98193.34;;;17.09;90.34
55538;BME280;41383;51.418;7.286;2023-08-01T05:45:42;98194.97;;;17.10;90.28
55538;BME280;41383;51.418;7.286;2023-08-01T05:48:07;98193.81;;;17.11;89.63
55538;BME280;41383;51.418;7.286;2023-08-01T05:50:32;98192.72;;;16.87;90.24
55538;BME280;41383;51.418;7.286;2023-08-01T05:52:58;98201.31;;;16.86;91.13
55538;BME280;41383;51.418;7.286;2023-08-01T05:55:23;98207.84;;;16.94;91.11
55538;BME280;41383;51.418;7.286;2023-08-01T05:57:48;98197.75;;;16.73;91.41
55538;BME280;41383;51.418;7.286;2023-08-01T06:00:17;98205.09;;;16.68;91.33
55538;BME280;41383;51.418;7.286;2023-08-01T06:02:42;98198.00;;;16.67;91.93
55538;BME280;41383;51.418;7.286;2023-08-01T06:05:08;98202.53;;;17.01;91.43
55538;BME280;41383;51.418;7.286;2023-08-01T06:07:33;98204.38;;;17.22;90.40
55538;BME280;41383;51.418;7.286;2023-08-01T06:09:58;98200.91;;;17.25;89.99
55538;BME280;41383;51.418;7.286;2023-08-01T06:12:24;98198.63;;;17.27;89.59
55538;BME280;41383;51.418;7.286;2023-08-01T06:14:49;98207.78;;;17.31;89.24
55538;BME280;41383;51.418;7.286;2023-08-01T06:17:14;98201.94;;;17.33;89.52
55538;BME280;41383;51.418;7.286;2023-08-01T06:19:40;98209.31;;;17.16;90.30
55538;BME280;41383;51.418;7.286;2023-08-01T06:22:06;98211.03;;;17.21;89.49
55538;BME280;41383;51.418;7.286;2023-08-01T06:24:31;98201.28;;;17.23;89.81
55538;BME280;41383;51.418;7.286;2023-08-01T06:26:56;98212.75;;;17.13;90.16
55538;BME280;41383;51.418;7.286;2023-08-01T06:29:22;98220.00;;;17.18;90.28
55538;BME280;41383;51.418;7.286;2023-08-01T06:31:48;98219.19;;;17.17;90.06
55538;BME280;41383;51.418;7.286;2023-08-01T06:34:13;98210.78;;;17.26;89.33
55538;BME280;41383;51.418;7.286;2023-08-01T06:36:38;98218.59;;;17.24;89.14
55538;BME280;41383;51.418;7.286;2023-08-01T06:39:03;98215.19;;;17.14;88.96
55538;BME280;41383;51.418;7.286;2023-08-01T06:41:29;98207.13;;;17.22;89.06
55538;BME280;41383;51.418;7.286;2023-08-01T06:43:54;98215.38;;;17.34;89.34
55538;BME280;41383;51.418;7.286;2023-08-01T06:46:19;98220.38;;;17.45;88.66
55538;BME280;41383;51.418;7.286;2023-08-01T06:48:45;98221.41;;;17.53;88.69
55538;BME280;41383;51.418;7.286;2023-08-01T06:51:10;98220.38;;;17.45;88.90
55538;BME280;41383;51.418;7.286;2023-08-01T06:53:36;98215.81;;;17.36;88.61
55538;BME280;41383;51.418;7.286;2023-08-01T06:56:01;98212.84;;;17.29;88.40
55538;BME280;41383;51.418;7.286;2023-08-01T06:58:26;98216.28;;;17.38;88.21
55538;BME280;41383;51.418;7.286;2023-08-01T07:00:52;98221.81;;;17.26;87.91
55538;BME280;41383;51.418;7.286;2023-08-01T07:03:17;98217.44;;;17.25;89.07
55538;BME280;41383;51.418;7.286;2023-08-01T07:05:42;98222.84;;;17.21;88.91
55538;BME280;41383;51.418;7.286;2023-08-01T07:08:07;98219.50;;;17.28;88.90
55538;BME280;41383;51.418;7.286;2023-08-01T07:10:36;98224.59;;;17.55;88.81
55538;BME280;41383;51.418;7.286;2023-08-01T07:13:02;98229.03;;;17.59;88.53
55538;BME280;41383;51.418;7.286;2023-08-01T07:15:30;98230.03;;;17.51;87.91
55538;BME280;41383;51.418;7.286;2023-08-01T07:17:55;98234.13;;;17.57;87.97
55538;BME280;41383;51.418;7.286;2023-08-01T07:20:20;98230.59;;;17.44;87.36
55538;BME280;41383;51.418;7.286;2023-08-01T07:22:46;98234.16;;;17.45;87.69
55538;BME280;41383;51.418;7.286;2023-08-01T07:25:11;98233.47;;;17.35;88.06
55538;BME280;41383;51.418;7.286;2023-08-01T07:27:36;98227.78;;;17.28;88.46
55538;BME280;41383;51.418;7.286;2023-08-01T07:30:03;98225.56;;;17.34;88.50
55538;BME280;41383;51.418;7.286;2023-08-01T07:32:29;98236.63;;;17.62;87.86
55538;BME280;41383;51.418;7.286;2023-08-01T07:34:54;98237.06;;;17.65;87.61
55538;BME280;41383;51.418;7.286;2023-08-01T07:37:19;98238.44;;;17.71;87.26
55538;BME280;41383;51.418;7.286;2023-08-01T07:39:45;98234.50;;;17.72;86.86
55538;BME280;41383;51.418;7.286;2023-08-01T07:42:10;98244.63;;;17.68;85.72
55538;BME280;41383;51.418;7.286;2023-08-01T07:44:35;98245.69;;;17.63;85.91
55538;BME280;41383;51.418;7.286;2023-08-01T07:47:01;98243.28;;;17.61;85.97
55538;BME280;41383;51.418;7.286;2023-08-01T07:49:26;98248.47;;;17.63;86.36
55538;BME280;41383;51.418;7.286;2023-08-01T07:51:51;98251.59;;;17.49;86.68
55538;BME280;41383;51.418;7.286;2023-08-01T07:54:16;98245.16;;;17.57;86.17
55538;BME280;41383;51.418;7.286;2023-08-01T07:56:45;98245.31;;;17.77;86.38
55538;BME280;41383;51.418;7.286;2023-08-01T07:59:13;98252.09;;;17.96;86.00
55538;BME280;41383;51.418;7.286;2023-08-01T08:01:39;98254.25;;;17.74;85.73
55538;BME280;41383;51.418;7.286;2023-08-01T08:04:05;98245.94;;;17.87;84.79
55538;BME280;41383;51.418;7.286;2023-08-01T08:06:30;98261.00;;;17.89;85.30
55538;BME280;41383;51.418;7.286;2023-08-01T08:08:56;98258.78;;;17.95;85.02
55538;BME280;41383;51.418;7.286;2023-08-01T08:11:21;98267.31;;;17.90;85.36
55538;BME280;41383;51.418;7.286;2023-08-01T08:13:48;98261.53;;;17.66;85.64
55538;BME280;41383;51.418;7.286;2023-08-01T08:16:13;98256.38;;;17.93;85.41
55538;BME280;41383;51.418;7.286;2023-08-01T08:18:38;98265.69;;;17.89;85.79
55538;BME280;41383;51.418;7.286;2023-08-01T08:21:04;98256.56;;;17.72;85.49
55538;BME280;41383;51.418;7.286;2023-08-01T08:23:29;98251.75;;;17.69;86.08
55538;BME280;41383;51.418;7.286;2023-08-01T08:25:55;98251.03;;;18.01;86.35
55538;BME280;41383;51.418;7.286;2023-08-01T08:28:31;98254.16;;;17.99;85.88
55538;BME280;41383;51.418;7.286;2023-08-01T08:30:58;98253.41;;;17.86;86.03
55538;BME280;41383;51.418;7.286;2023-08-01T08:33:24;98260.22;;;18.05;85.88
55538;BME280;41383;51.418;7.286;2023-08-01T08:35:49;98262.38;;;18.12;85.57
55538;BME280;41383;51.418;7.286;2023-08-01T08:38:15;98269.38;;;18.09;85.07
55538;BME280;41383;51.418;7.286;2023-08-01T08:40:41;98265.72;;;18.05;84.16
55538;BME280;41383;51.418;7.286;2023-08-01T08:43:09;98256.56;;;18.29;84.22
55538;BME280;41383;51.418;7.286;2023-08-01T08:45:36;98256.28;;;18.35;82.89
55538;BME280;41383;51.418;7.286;2023-08-01T08:48:13;98270.13;;;18.51;81.95
55538;BME280;41383;51.418;7.286;2023-08-01T08:50:42;98275.38;;;18.56;81.82
55538;BME280;41383;51.418;7.286;2023-08-01T08:53:09;98250.91;;;18.54;81.25
55538;BME280;41383;51.418;7.286;2023-08-01T08:55:39;98263.72;;;18.63;80.95
55538;BME280;41383;51.418;7.286;2023-08-01T08:58:05;98258.28;;;18.66;79.92
55538;BME280;41383;51.418;7.286;2023-08-01T09:00:31;98253.00;;;18.61;79.65
55538;BME280;41383;51.418;7.286;2023-08-01T09:02:56;98272.75;;;18.47;80.32
55538;BME280;41383;51.418;7.286;2023-08-01T09:05:27;98271.72;;;18.52;81.45
55538;BME280;41383;51.418;7.286;2023-08-01T09:07:55;98276.13;;;18.24;82.43
55538;BME280;41383;51.418;7.286;2023-08-01T09:10:21;98274.09;;;18.08;83.19
55538;BME280;41383;51.418;7.286;2023-08-01T09:12:47;98276.22;;;17.99;83.68
55538;BME280;41383;51.418;7.286;2023-08-01T09:15:12;98266.28;;;18.11;83.43
55538;BME280;41383;51.418;7.286;2023-08-01T09:17:50;98275.88;;;18.29;82.79
55538;BME280;41383;51.418;7.286;2023-08-01T09:20:16;98272.31;;;18.29;83.52
55538;BME280;41383;51.418;7.286;2023-08-01T09:22:45;98273.41;;;18.40;83.17
55538;BME280;41383;51.418;7.286;2023-08-01T09:25:11;98271.63;;;18.48;82.36
55538;BME280;41383;51.418;7.286;2023-08-01T09:27:37;98278.28;;;18.47;82.21
55538;BME280;41383;51.418;7.286;2023-08-01T09:30:20;98277.22;;;18.68;81.57
55538;BME280;41383;51.418;7.286;2023-08-01T09:32:53;98264.66;;;19.03;81.65
55538;BME280;41383;51.418;7.286;2023-08-01T09:35:18;98258.91;;;19.12;79.98
55538;BME280;41383;51.418;7.286;2023-08-01T09:37:43;98268.44;;;19.31;79.37
55538;BME280;41383;51.418;7.286;2023-08-01T09:40:10;98270.63;;;19.21;77.89
55538;BME280;41383;51.418;7.286;2023-08-01T09:42:43;98264.66;;;19.19;76.96
55538;BME280;41383;51.418;7.286;2023-08-01T09:45:12;98274.00;;;18.98;77.34
55538;BME280;41383;51.418;7.286;2023-08-01T09:47:38;98275.69;;;19.03;77.93
55538;BME280;41383;51.418;7.286;2023-08-01T09:50:04;98269.88;;;19.24;76.51
55538;BME280;41383;51.418;7.286;2023-08-01T09:52:30;98275.25;;;19.53;76.15
55538;BME280;41383;51.418;7.286;2023-08-01T09:54:55;98275.41;;;19.60;75.13
55538;BME280;41383;51.418;7.286;2023-08-01T09:57:21;98273.59;;;19.88;74.09
55538;BME280;41383;51.418;7.286;2023-08-01T09:59:47;98266.97;;;20.13;73.45
55538;BME280;41383;51.418;7.286;2023-08-01T10:02:15;98268.28;;;19.99;71.17
55538;BME280;41383;51.418;7.286;2023-08-01T10:04:41;98261.28;;;20.05;71.68
55538;BME280;41383;51.418;7.286;2023-08-01T10:07:08;98260.03;;;20.23;72.22
55538;BME280;41383;51.418;7.286;2023-08-01T10:09:37;98260.34;;;19.98;71.96
55538;BME280;41383;51.418;7.286;2023-08-01T10:12:04;98258.16;;;20.07;71.46
55538;BME280;41383;51.418;7.286;2023-08-01T10:14:32;98269.31;;;20.11;71.60
55538;BME280;41383;51.418;7.286;2023-08-01T10:16:57;98272.56;;;19.97;71.63
55538;BME280;41383;51.418;7.286;2023-08-01T10:19:23;98295.97;;;19.63;76.82
55538;BME280;41383;51.418;7.286;2023-08-01T10:21:50;98298.25;;;19.21;80.53
55538;BME280;41383;51.418;7.286;2023-08-01T10:24:17;98290.94;;;18.81;80.38
55538;BME280;41383;51.418;7.286;2023-08-01T10:26:44;98290.22;;;18.51;82.08
55538;BME280;41383;51.418;7.286;2023-08-01T10:29:11;98284.69;;;18.67;82.29
55538;BME280;41383;51.418;7.286;2023-08-01T10:31:36;98285.25;;;19.06;82.36
55538;BME280;41383;51.418;7.286;2023-08-01T10:34:06;98282.16;;;19.43;81.61
55538;BME280;41383;51.418;7.286;2023-08-01T10:36:32;98290.09;;;19.29;82.76
55538;BME280;41383;51.418;7.286;2023-08-01T10:39:01;98282.94;;;19.44;82.80
55538;BME280;41383;51.418;7.286;2023-08-01T10:41:31;98279.56;;;19.34;83.13
55538;BME280;41383;51.418;7.286;2023-08-01T10:44:14;98272.13;;;19.55;82.29
55538;BME280;41383;51.418;7.286;2023-08-01T10:49:14;98274.53;;;19.96;82.42
55538;BME280;41383;51.418;7.286;2023-08-01T10:51:40;98266.59;;;19.94;82.70
55538;BME280;41383;51.418;7.286;2023-08-01T10:54:05;98273.28;;;19.93;82.14
55538;BME280;41383;51.418;7.286;2023-08-01T10:56:31;98272.44;;;20.09;80.51
55538;BME280;41383;51.418;7.286;2023-08-01T10:58:58;98276.22;;;20.21;79.36
55538;BME280;41383;51.418;7.286;2023-08-01T11:01:23;98270.88;;;20.32;78.37
55538;BME280;41383;51.418;7.286;2023-08-01T11:03:51;98286.13;;;20.22;77.22
55538;BME280;41383;51.418;7.286;2023-08-01T11:06:16;98288.16;;;20.05;76.84
55538;BME280;41383;51.418;7.286;2023-08-01T11:08:42;98286.97;;;20.06;76.34
55538;BME280;41383;51.418;7.286;2023-08-01T11:11:11;98301.63;;;19.87;76.56
55538;BME280;41383;51.418;7.286;2023-08-01T11:13:37;98305.75;;;19.77;76.71
55538;BME280;41383;51.418;7.286;2023-08-01T11:16:05;98310.69;;;19.67;77.54
55538;BME280;41383;51.418;7.286;2023-08-01T11:18:44;98311.00;;;19.26;77.84
55538;BME280;41383;51.418;7.286;2023-08-01T11:21:10;98327.66;;;18.97;79.39
55538;BME280;41383;51.418;7.286;2023-08-01T11:23:35;98338.84;;;18.72;80.50
55538;BME280;41383;51.418;7.286;2023-08-01T11:26:06;98337.59;;;18.86;81.08
55538;BME280;41383;51.418;7.286;2023-08-01T11:28:33;98348.47;;;18.95;81.61
55538;BME280;41383;51.418;7.286;2023-08-01T11:30:58;98323.16;;;19.09;81.62
55538;BME280;41383;51.418;7.286;2023-08-01T11:33:23;98341.38;;;19.26;80.60
55538;BME280;41383;51.418;7.286;2023-08-01T11:35:53;98340.34;;;19.34;79.88
55538;BME280;41383;51.418;7.286;2023-08-01T11:38:22;98356.50;;;19.16;80.19
55538;BME280;41383;51.418;7.286;2023-08-01T11:40:49;98366.84;;;19.19;80.73
55538;BME280;41383;51.418;7.286;2023-08-01T11:43:15;98369.75;;;19.10;80.85
55538;BME280;41383;51.418;7.286;2023-08-01T11:45:51;98362.22;;;19.23;80.49
55538;BME280;41383;51.418;7.286;2023-08-01T11:48:17;98358.13;;;19.17;81.49
55538;BME280;41383;51.418;7.286;2023-08-01T11:50:43;98363.88;;;19.12;81.36
55538;BME280;41383;51.418;7.286;2023-08-01T11:53:21;98366.38;;;18.85;79.23
55538;BME280;41383;51.418;7.286;2023-08-01T11:55:48;98358.00;;;18.81;79.88
55538;BME280;41383;51.418;7.286;2023-08-01T11:58:14;98366.38;;;18.85;79.74
55538;BME280;41383;51.418;7.286;2023-08-01T12:00:40;98363.78;;;18.92;79.36
55538;BME280;41383;51.418;7.286;2023-08-01T12:03:10;98362.81;;;19.00;79.64
55538;BME280;41383;51.418;7.286;2023-08-01T12:05:40;98369.75;;;19.10;79.33
55538;BME280;41383;51.418;7.286;2023-08-01T12:08:13;98365.06;;;19.27;79.37
55538;BME280;41383;51.418;7.286;2023-08-01T12:10:43;98369.22;;;19.37;79.27
55538;BME280;41383;51.418;7.286;2023-08-01T12:13:22;98370.31;;;19.48;78.86
55538;BME280;41383;51.418;7.286;2023-08-01T12:15:49;98377.53;;;19.37;79.18
55538;BME280;41383;51.418;7.286;2023-08-01T12:18:26;98383.06;;;19.37;80.09
55538;BME280;41383;51.418;7.286;2023-08-01T12:20:52;98383.66;;;19.30;80.27
55538;BME280;41383;51.418;7.286;2023-08-01T12:23:18;98377.28;;;19.42;79.83
55538;BME280;41383;51.418;7.286;2023-08-01T12:25:44;98382.50;;;19.47;79.68
55538;BME280;41383;51.418;7.286;2023-08-01T12:28:09;98386.16;;;19.52;79.45
55538;BME280;41383;51.418;7.286;2023-08-01T12:30:34;98384.66;;;19.38;79.87
55538;BME280;41383;51.418;7.286;2023-08-01T12:33:00;98388.41;;;19.30;79.91
55538;BME280;41383;51.418;7.286;2023-08-01T12:35:27;98390.28;;;19.42;80.08
55538;BME280;41383;51.418;7.286;2023-08-01T12:37:53;98387.03;;;19.56;79.76
55538;BME280;41383;51.418;7.286;2023-08-01T12:40:19;98391.69;;;19.52;79.52
55538;BME280;41383;51.418;7.286;2023-08-01T12:42:44;98397.28;;;19.55;80.26
55538;BME280;41383;51.418;7.286;2023-08-01T12:45:09;98389.34;;;19.70;78.91
55538;BME280;41383;51.418;7.286;2023-08-01T12:47:35;98395.13;;;19.81;78.47
55538;BME280;41383;51.418;7.286;2023-08-01T12:50:00;98396.63;;;19.78;79.25
55538;BME280;41383;51.418;7.286;2023-08-01T12:52:26;98395.25;;;19.88;79.76
55538;BME280;41383;51.418;7.286;2023-08-01T12:54:52;98393.38;;;19.92;79.51
55538;BME280;41383;51.418;7.286;2023-08-01T12:57:17;98396.38;;;20.03;80.46